Time;durP1;ratioP1;P1;durP2;ratioP2;P2;SDS_P1;SDS_P2;PMS_P1;PMS_P2;Temp;Humidity;BMP_temperature;BMP_pressure;BME280_temperature;BME280_humidity;BME280_pressure;Samples;Min_cycle;Max_cycle;Signal;HPM_P1;HPM_P2
2021/09/21 00:00:39;;;;;;;7.85;2.10;;;;;;;10.79;90.78;100842.34;5004525;28;20061;-68
2021/09/21 00:03:05;;;;;;;13.07;2.13;;;;;;;10.83;91.33;100843.56;5005553;28;20041;-69
2021/09/21 00:05:31;;;;;;;6.00;2.15;;;;;;;10.74;91.58;100834.09;4998338;28;20030;-68
2021/09/21 00:07:56;;;;;;;15.13;2.85;;;;;;;10.66;91.78;100841.38;4995992;28;20045;-68
2021/09/21 00:10:22;;;;;;;15.93;2.67;;;;;;;10.67;92.17;100839.50;4998828;28;20036;-67
2021/09/21 00:12:48;;;;;;;16.48;3.22;;;;;;;10.71;92.68;100842.59;4998234;28;20026;-67
2021/09/21 00:15:17;;;;;;;12.82;3.75;;;;;;;10.71;93.48;100832.63;4990696;28;20459;-68
2021/09/21 00:17:43;;;;;;;12.65;4.07;;;;;;;10.71;94.00;100829.13;5000103;28;20110;-67
2021/09/21 00:20:11;;;;;;;12.57;4.45;;;;;;;10.73;94.90;100829.75;4998177;28;20089;-68
2021/09/21 00:22:38;;;;;;;11.77;4.13;;;;;;;10.78;94.70;100833.44;4993881;28;20549;-68
2021/09/21 00:25:04;;;;;;;11.27;4.97;;;;;;;10.77;95.39;100839.03;4989695;28;20065;-68
2021/09/21 00:27:29;;;;;;;15.18;4.45;;;;;;;10.71;95.08;100845.31;5000255;28;20030;-67
2021/09/21 00:29:55;;;;;;;14.10;4.78;;;;;;;10.76;95.25;100843.59;5000724;28;20038;-67
2021/09/21 00:32:25;;;;;;;15.15;4.35;;;;;;;10.81;95.95;100849.16;4990496;28;20068;-67
2021/09/21 00:34:51;;;;;;;9.93;3.80;;;;;;;10.73;94.89;100844.03;5003868;28;20161;-67
2021/09/21 00:37:17;;;;;;;10.80;3.85;;;;;;;10.74;95.66;100834.91;5003658;28;20539;-67
2021/09/21 00:39:44;;;;;;;12.15;3.85;;;;;;;10.86;96.38;100840.44;5000314;28;20109;-67
2021/09/21 00:42:12;;;;;;;11.13;3.50;;;;;;;10.98;96.48;100844.09;5001567;28;20112;-67
2021/09/21 00:44:40;;;;;;;13.93;3.80;;;;;;;11.09;96.62;100849.81;4990117;28;20030;-67
2021/09/21 00:47:10;;;;;;;10.10;3.38;;;;;;;11.22;95.87;100838.94;4992890;28;20037;-68
2021/09/21 00:49:36;;;;;;;13.65;3.42;;;;;;;11.32;95.90;100848.41;4991755;28;20049;-67
2021/09/21 00:52:03;;;;;;;7.60;2.80;;;;;;;11.36;95.36;100850.41;5004978;28;20092;-67
2021/09/21 00:54:30;;;;;;;16.05;3.45;;;;;;;11.44;95.31;100857.41;4992624;28;20096;-67
2021/09/21 00:56:57;;;;;;;10.45;3.13;;;;;;;11.54;95.47;100854.25;5006893;28;20395;-67
2021/09/21 00:59:23;;;;;;;14.65;3.47;;;;;;;11.66;94.85;100859.72;4994165;28;20038;-68
2021/09/21 01:01:49;;;;;;;11.07;3.28;;;;;;;11.76;95.03;100851.13;4999345;28;20552;-67
2021/09/21 01:04:15;;;;;;;8.65;3.00;;;;;;;11.92;94.12;100857.78;5009273;28;20638;-67
2021/09/21 01:06:41;;;;;;;7.18;2.80;;;;;;;11.99;93.86;100851.28;5007990;28;20076;-67
2021/09/21 01:09:22;;;;;;;8.75;2.70;;;;;;;12.08;94.08;100853.72;5000710;28;20129;-67
2021/09/21 01:11:50;;;;;;;8.88;3.53;;;;;;;12.08;93.71;100856.41;5003829;28;20256;-68
2021/09/21 01:14:16;;;;;;;12.00;3.08;;;;;;;12.09;93.80;100858.88;4990337;28;20031;-67
2021/09/21 01:16:42;;;;;;;12.70;3.28;;;;;;;12.11;94.11;100854.06;5009568;28;20451;-67
2021/09/21 01:19:12;;;;;;;11.88;2.97;;;;;;;12.18;93.94;100847.78;4993676;28;20072;-67
2021/09/21 01:21:39;;;;;;;8.57;2.70;;;;;;;12.27;93.71;100851.81;5001717;28;20042;-67
2021/09/21 01:24:07;;;;;;;11.07;3.17;;;;;;;12.33;93.73;100845.50;4994877;28;20054;-67
2021/09/21 01:26:32;;;;;;;8.65;3.22;;;;;;;12.37;93.49;100852.13;4998510;28;20045;-67
2021/09/21 01:28:58;;;;;;;7.60;3.05;;;;;;;12.42;93.59;100848.72;4996162;28;20026;-67
2021/09/21 01:31:25;;;;;;;9.10;2.58;;;;;;;12.44;93.58;100854.72;5000863;28;20100;-67
2021/09/21 01:33:52;;;;;;;10.60;2.95;;;;;;;12.54;93.02;100851.50;4999638;28;20104;-67
2021/09/21 01:36:22;;;;;;;7.57;2.63;;;;;;;12.50;92.18;100847.59;4999678;28;20114;-67
2021/09/21 01:38:49;;;;;;;9.75;2.58;;;;;;;12.41;92.56;100845.22;5006177;28;20049;-67
2021/09/21 01:41:15;;;;;;;8.32;2.78;;;;;;;12.61;93.33;100844.13;4993901;28;20072;-67
2021/09/21 01:43:43;;;;;;;13.60;3.35;;;;;;;12.69;93.22;100851.06;4994992;28;20061;-66
2021/09/21 01:46:14;;;;;;;6.40;2.75;;;;;;;12.72;93.20;100846.06;5003499;28;20594;-66
2021/09/21 01:48:40;;;;;;;7.40;2.70;;;;;;;12.77;93.04;100841.84;4961935;28;20086;-66
2021/09/21 01:51:11;;;;;;;16.60;3.08;;;;;;;12.77;92.24;100841.84;4999563;28;20110;-66
2021/09/21 01:59:04;;;;;;;8.35;2.55;;;;;;;12.92;92.38;100846.81;4923590;29;20040;-66
2021/09/21 02:01:30;;;;;;;7.05;2.80;;;;;;;12.80;92.60;100847.59;4924908;29;20046;-66
2021/09/21 02:03:57;;;;;;;5.78;2.53;;;;;;;12.73;93.10;100852.25;4924433;29;20040;-66
2021/09/21 02:06:38;;;;;;;7.97;3.58;;;;;;;12.70;93.63;100850.88;4922631;29;20043;-66
2021/09/21 02:09:07;;;;;;;10.40;3.55;;;;;;;12.86;93.25;100849.38;4935967;29;20050;-66
2021/09/21 02:11:33;;;;;;;9.13;2.97;;;;;;;12.85;93.34;100844.22;4926407;29;20071;-66
2021/09/21 02:14:00;;;;;;;10.15;3.50;;;;;;;12.87;93.94;100851.03;4928299;29;20040;-66
2021/09/21 02:16:27;;;;;;;10.10;4.25;;;;;;;12.87;93.50;100851.03;4922471;29;20044;-66
2021/09/21 02:18:53;;;;;;;9.68;3.85;;;;;;;12.93;93.82;100851.16;4926466;29;20063;-66
2021/09/21 02:21:19;;;;;;;8.65;3.60;;;;;;;12.86;93.70;100848.56;4918807;29;20641;-66
2021/09/21 02:23:46;;;;;;;10.20;3.90;;;;;;;12.84;94.01;100843.38;4921446;29;20071;-66
2021/09/21 02:26:11;;;;;;;9.20;4.05;;;;;;;12.81;94.32;100843.84;4928076;29;20134;-66
2021/09/21 02:28:37;;;;;;;14.25;4.35;;;;;;;12.82;94.39;100850.06;4927165;29;20031;-66
2021/09/21 02:31:02;;;;;;;11.00;4.40;;;;;;;12.80;94.72;100863.81;4914560;29;20646;-66
2021/09/21 02:33:28;;;;;;;16.15;4.85;;;;;;;12.80;94.76;100854.88;4963806;28;20129;-66
2021/09/21 02:35:54;;;;;;;14.52;5.85;;;;;;;12.79;94.48;100859.47;5004630;28;20117;-66
2021/09/21 02:38:20;;;;;;;14.98;4.50;;;;;;;12.85;93.94;100860.44;4991449;28;20046;-66
2021/09/21 02:40:45;;;;;;;7.30;3.90;;;;;;;12.83;94.08;100852.53;4972846;28;20041;-67
2021/09/21 02:43:11;;;;;;;12.05;4.03;;;;;;;12.88;93.87;100854.56;4999358;28;20034;-67
2021/09/21 02:45:36;;;;;;;9.55;4.53;;;;;;;12.92;93.78;100852.22;4996243;28;20093;-67
2021/09/21 02:48:02;;;;;;;10.82;4.60;;;;;;;12.89;94.13;100854.31;4985416;28;20070;-67
2021/09/21 02:50:28;;;;;;;7.30;3.35;;;;;;;12.94;93.85;100859.03;5002808;28;20496;-67
2021/09/21 02:52:54;;;;;;;8.35;4.43;;;;;;;12.89;93.70;100856.22;5006992;28;20472;-66
2021/09/21 02:55:20;;;;;;;8.98;4.05;;;;;;;12.82;94.28;100853.59;5007036;28;20040;-66
2021/09/21 02:57:46;;;;;;;9.68;4.90;;;;;;;12.81;94.59;100849.25;4996032;28;20498;-66
2021/09/21 03:00:14;;;;;;;11.93;5.20;;;;;;;12.73;95.08;100858.50;5005640;28;20033;-66
2021/09/21 03:02:42;;;;;;;10.18;5.22;;;;;;;12.70;95.87;100850.03;4994246;28;20034;-66
2021/09/21 03:05:12;;;;;;;7.78;5.03;;;;;;;12.59;95.76;100847.06;4987062;28;20076;-67
2021/09/21 03:07:51;;;;;;;11.60;6.55;;;;;;;12.61;96.16;100849.53;4999841;28;20057;-67
2021/09/21 03:10:25;;;;;;;15.35;8.43;;;;;;;12.49;97.45;100849.47;4996161;28;20101;-67
2021/09/21 03:18:01;;;;;;;12.13;7.28;;;;;;;11.99;97.87;100848.59;5005428;28;20108;-68
2021/09/21 03:20:28;;;;;;;17.20;10.27;;;;;;;11.92;99.25;100847.84;5001538;28;20484;-67
2021/09/21 03:22:53;;;;;;;23.60;12.13;;;;;;;11.94;100.00;100853.00;5005035;28;20506;-67
2021/09/21 03:25:19;;;;;;;23.70;11.48;;;;;;;11.88;99.70;100849.34;5003393;28;20037;-67
2021/09/21 03:27:45;;;;;;;16.50;10.70;;;;;;;11.77;99.90;100850.06;4996374;28;20042;-67
2021/09/21 03:30:12;;;;;;;26.65;12.90;;;;;;;11.67;100.00;100842.47;5011593;28;20034;-67
2021/09/21 03:32:38;;;;;;;33.72;15.52;;;;;;;11.69;100.00;100848.47;4998835;28;20035;-67
2021/09/21 03:35:05;;;;;;;32.78;15.35;;;;;;;11.67;100.00;100854.09;4995763;28;20038;-68
2021/09/21 03:37:31;;;;;;;34.60;16.35;;;;;;;11.67;100.00;100859.50;4995399;28;20034;-67
2021/09/21 03:39:57;;;;;;;28.55;15.70;;;;;;;11.71;100.00;100858.00;4999425;28;20042;-67
2021/09/21 03:42:23;;;;;;;35.75;15.63;;;;;;;11.62;100.00;100859.34;5003778;28;20049;-67
2021/09/21 03:44:48;;;;;;;23.38;13.70;;;;;;;11.48;100.00;100855.09;5002850;28;20073;-67
2021/09/21 03:47:15;;;;;;;41.10;16.10;;;;;;;11.46;100.00;100862.56;4996953;28;20034;-67
2021/09/21 03:49:40;;;;;;;28.17;15.25;;;;;;;11.33;100.00;100868.94;5008586;28;20045;-67
2021/09/21 03:52:06;;;;;;;24.40;14.20;;;;;;;11.32;100.00;100867.28;5013382;28;20042;-67
2021/09/21 03:54:31;;;;;;;31.45;14.80;;;;;;;11.47;100.00;100867.78;5002973;28;20030;-67
2021/09/21 03:56:57;;;;;;;31.80;15.55;;;;;;;11.53;100.00;100864.19;4996543;28;20114;-67
2021/09/21 03:59:24;;;;;;;31.27;14.85;;;;;;;11.39;100.00;100868.03;4997713;28;20104;-67
2021/09/21 04:01:50;;;;;;;29.95;16.10;;;;;;;11.34;100.00;100876.78;5005303;28;20426;-68
2021/09/21 04:04:16;;;;;;;28.88;14.93;;;;;;;11.21;100.00;100883.13;4997615;28;20034;-68
2021/09/21 04:06:41;;;;;;;30.83;15.88;;;;;;;11.17;100.00;100881.91;4992022;28;20392;-67
2021/09/21 04:09:07;;;;;;;31.38;17.58;;;;;;;11.22;100.00;100886.63;4982645;28;20037;-68
2021/09/21 04:11:32;;;;;;;30.67;16.13;;;;;;;11.40;100.00;100880.50;4997174;28;20034;-67
2021/09/21 04:13:57;;;;;;;31.35;16.20;;;;;;;11.42;100.00;100879.22;5000312;28;20041;-67
2021/09/21 04:16:23;;;;;;;30.05;14.95;;;;;;;11.43;100.00;100882.75;4996576;28;20542;-67
2021/09/21 04:18:48;;;;;;;24.83;14.48;;;;;;;11.39;100.00;100882.34;4997162;28;20507;-67
2021/09/21 04:21:15;;;;;;;19.45;12.48;;;;;;;11.34;100.00;100873.28;5005918;28;20042;-67
2021/09/21 04:23:40;;;;;;;23.20;11.98;;;;;;;11.26;100.00;100879.75;4999216;28;20033;-67
2021/09/21 04:26:09;;;;;;;30.98;11.52;;;;;;;11.33;100.00;100868.94;5004367;28;20079;-67
2021/09/21 04:28:36;;;;;;;27.02;12.57;;;;;;;11.43;100.00;100874.66;4985294;28;20038;-67
2021/09/21 04:31:11;;;;;;;23.75;11.82;;;;;;;11.38;100.00;100878.00;5007039;28;20129;-67
2021/09/21 04:33:39;;;;;;;21.25;11.30;;;;;;;11.34;100.00;100890.28;4994728;28;20037;-67
2021/09/21 04:36:09;;;;;;;24.00;11.43;;;;;;;11.45;100.00;100887.91;4996334;28;20069;-67
2021/09/21 04:38:36;;;;;;;18.73;9.27;;;;;;;11.41;100.00;100891.03;5003619;28;20034;-67
2021/09/21 04:41:04;;;;;;;17.02;9.82;;;;;;;11.35;100.00;100891.09;4993557;28;20041;-68
2021/09/21 04:43:30;;;;;;;22.73;10.25;;;;;;;11.46;100.00;100890.41;4991796;28;20060;-67
2021/09/21 04:45:56;;;;;;;27.90;11.45;;;;;;;11.61;100.00;100906.28;4975764;28;20050;-67
2021/09/21 04:48:21;;;;;;;22.60;10.52;;;;;;;11.65;100.00;100906.63;4998089;28;20042;-67
2021/09/21 04:50:47;;;;;;;26.17;10.95;;;;;;;11.76;100.00;100910.50;5001386;28;20038;-68
2021/09/21 04:53:13;;;;;;;22.85;11.07;;;;;;;11.81;100.00;100910.66;4993119;28;20516;-67
2021/09/21 04:55:38;;;;;;;24.73;11.05;;;;;;;11.85;100.00;100911.88;4997906;28;20075;-67
2021/09/21 05:00:45;;;;;;;29.13;11.13;;;;;;;11.84;100.00;100918.31;5356864;23;20839;-64
2021/09/21 05:03:11;;;;;;;23.92;9.40;;;;;;;11.91;100.00;100924.47;5002701;28;20038;-64
2021/09/21 05:05:37;;;;;;;21.83;10.25;;;;;;;11.91;100.00;100915.53;4999774;28;20084;-64
2021/09/21 05:08:03;;;;;;;21.55;9.73;;;;;;;11.90;100.00;100924.69;5005530;28;20402;-63
2021/09/21 05:10:33;;;;;;;18.52;9.57;;;;;;;11.85;100.00;100923.47;4992154;28;20552;-64
2021/09/21 05:12:59;;;;;;;16.92;9.13;;;;;;;11.78;100.00;100924.59;5001383;28;20514;-63
2021/09/21 05:15:25;;;;;;;23.15;9.05;;;;;;;11.74;100.00;100913.41;5009355;28;20057;-63
2021/09/21 05:17:51;;;;;;;20.77;8.80;;;;;;;11.72;100.00;100912.81;4997594;28;20026;-64
2021/09/21 05:20:17;;;;;;;22.75;7.97;;;;;;;11.63;100.00;100908.72;5001008;28;20064;-64
2021/09/21 05:22:43;;;;;;;21.02;8.65;;;;;;;11.51;100.00;100925.63;5001437;28;20022;-64
2021/09/21 05:25:09;;;;;;;22.13;8.80;;;;;;;11.43;100.00;100923.22;5010623;28;20034;-64
2021/09/21 05:27:35;;;;;;;22.75;8.50;;;;;;;11.35;100.00;100926.19;5009808;28;20324;-64
2021/09/21 05:30:00;;;;;;;21.70;8.73;;;;;;;11.25;100.00;100916.69;4995622;28;20057;-65
2021/09/21 05:32:26;;;;;;;27.98;9.50;;;;;;;11.20;100.00;100916.53;5007479;28;20030;-64
2021/09/21 05:34:51;;;;;;;21.15;9.57;;;;;;;11.15;100.00;100913.66;5006847;28;20073;-66
2021/09/21 05:37:17;;;;;;;15.85;8.27;;;;;;;11.08;100.00;100919.06;4986666;28;20034;-64
2021/09/21 05:39:42;;;;;;;28.10;10.82;;;;;;;11.09;100.00;100915.34;5006070;28;20402;-63
2021/09/21 05:42:08;;;;;;;22.90;10.40;;;;;;;10.99;100.00;100914.97;5007091;28;20069;-63
2021/09/21 05:44:34;;;;;;;18.63;8.90;;;;;;;10.83;100.00;100905.56;5007384;28;20030;-62
2021/09/21 05:46:59;;;;;;;29.73;10.10;;;;;;;10.71;100.00;100910.78;5007974;28;20038;-62
2021/09/21 05:49:25;;;;;;;24.73;10.68;;;;;;;10.71;100.00;100921.56;5007551;28;20030;-62
2021/09/21 05:51:50;;;;;;;29.67;11.88;;;;;;;10.78;100.00;100916.97;5009510;28;20045;-62
2021/09/21 05:54:16;;;;;;;36.20;12.68;;;;;;;10.82;100.00;100926.28;5010038;28;20065;-62
2021/09/21 05:56:42;;;;;;;23.02;11.43;;;;;;;10.73;100.00;100927.56;5009044;28;20064;-62
2021/09/21 05:59:08;;;;;;;25.10;13.50;;;;;;;10.68;100.00;100930.06;5008825;28;20044;-62
2021/09/21 06:01:35;;;;;;;27.48;12.95;;;;;;;10.71;100.00;100920.75;4997217;28;20043;-62
2021/09/21 06:04:02;;;;;;;29.95;13.93;;;;;;;10.77;100.00;100926.09;4994153;28;20125;-63
2021/09/21 06:06:28;;;;;;;20.67;11.55;;;;;;;10.69;100.00;100920.94;4988621;28;20041;-63
2021/09/21 06:08:53;;;;;;;27.60;13.38;;;;;;;10.75;100.00;100924.66;4989377;28;20034;-62
2021/09/21 06:11:28;;;;;;;35.97;14.70;;;;;;;10.84;100.00;100924.19;4988997;28;20404;-62
2021/09/21 06:13:58;;;;;;;32.60;15.98;;;;;;;11.15;100.00;100927.13;4984262;28;20031;-63
2021/09/21 06:16:25;;;;;;;25.77;13.05;;;;;;;11.26;100.00;100926.44;4984804;28;20057;-62
2021/09/21 06:18:51;;;;;;;29.80;12.57;;;;;;;11.33;100.00;100930.97;4987342;28;20045;-63
2021/09/21 06:21:17;;;;;;;26.40;12.75;;;;;;;11.35;100.00;100936.97;4987982;28;20046;-63
2021/09/21 06:23:43;;;;;;;26.23;12.80;;;;;;;11.35;100.00;100931.56;4990316;28;20484;-64
2021/09/21 06:26:09;;;;;;;21.50;11.15;;;;;;;11.36;100.00;100938.63;4986509;28;20045;-64
2021/09/21 06:28:35;;;;;;;33.60;12.18;;;;;;;11.37;100.00;100938.38;4971372;28;20044;-63
2021/09/21 06:31:00;;;;;;;30.73;10.82;;;;;;;11.39;100.00;100939.00;4990082;28;20077;-65
2021/09/21 06:33:26;;;;;;;20.88;10.40;;;;;;;11.35;100.00;100945.06;4991041;28;20089;-65
2021/09/21 06:35:51;;;;;;;19.77;9.75;;;;;;;11.45;100.00;100948.09;4992211;28;20030;-65
2021/09/21 06:38:18;;;;;;;23.50;10.43;;;;;;;11.56;100.00;100947.38;4991414;28;20081;-64
2021/09/21 06:40:43;;;;;;;19.80;8.98;;;;;;;11.57;100.00;100956.31;4991519;28;20395;-64
2021/09/21 06:43:09;;;;;;;22.63;8.93;;;;;;;11.56;100.00;100950.09;4990220;28;20118;-64
2021/09/21 06:45:35;;;;;;;27.48;9.63;;;;;;;11.59;100.00;100943.44;4991314;28;20571;-64
2021/09/21 06:48:01;;;;;;;24.08;9.95;;;;;;;11.71;100.00;100949.78;4993385;28;20061;-64
2021/09/21 06:50:27;;;;;;;18.17;7.40;;;;;;;11.80;100.00;100961.09;4990069;28;20867;-64
2021/09/21 06:52:53;;;;;;;18.48;7.18;;;;;;;11.90;100.00;100963.31;4987201;28;20034;-64
2021/09/21 06:55:18;;;;;;;13.27;6.20;;;;;;;11.97;100.00;100966.78;4991512;28;20058;-64
2021/09/21 06:57:52;;;;;;;19.23;6.43;;;;;;;12.12;99.52;100965.63;4985221;28;20090;-64
2021/09/21 07:00:19;;;;;;;25.98;7.00;;;;;;;12.15;98.62;100963.31;4990574;28;20061;-64
2021/09/21 07:02:48;;;;;;;13.52;5.78;;;;;;;12.22;98.77;100962.41;4984769;28;20042;-64
2021/09/21 07:05:13;;;;;;;22.83;6.25;;;;;;;12.31;97.78;100958.38;4991026;28;20038;-64
2021/09/21 07:07:44;;;;;;;16.02;5.03;;;;;;;12.37;98.36;100967.47;4992222;28;20045;-64
2021/09/21 07:10:09;;;;;;;14.73;4.95;;;;;;;12.45;97.87;100967.16;4994339;28;20039;-64
2021/09/21 07:12:35;;;;;;;14.80;4.80;;;;;;;12.52;97.00;100962.50;4986205;28;20495;-64
2021/09/21 07:15:00;;;;;;;16.33;3.67;;;;;;;12.66;95.41;100968.59;4992346;28;20042;-64
2021/09/21 07:17:26;;;;;;;11.93;3.85;;;;;;;12.82;92.98;100967.13;4989857;28;20451;-64
2021/09/21 07:19:51;;;;;;;17.20;4.78;;;;;;;12.98;92.59;100976.53;4992156;28;20113;-65
2021/09/21 07:22:17;;;;;;;12.57;3.95;;;;;;;13.02;91.74;100975.00;4979117;28;20037;-65
2021/09/21 07:24:42;;;;;;;18.52;3.63;;;;;;;13.16;91.15;100977.53;4980363;28;20035;-65
2021/09/21 07:27:08;;;;;;;14.60;3.70;;;;;;;13.17;91.01;100981.88;4990890;28;20022;-64
2021/09/21 07:29:34;;;;;;;19.00;3.55;;;;;;;13.25;89.98;100978.00;4987374;28;20551;-64
2021/09/21 07:32:00;;;;;;;10.50;3.55;;;;;;;13.29;89.52;100982.75;4991181;28;20101;-64
2021/09/21 07:34:26;;;;;;;8.05;2.60;;;;;;;13.49;88.32;101002.50;4989920;28;20113;-64
2021/09/21 07:36:52;;;;;;;12.18;3.00;;;;;;;13.54;88.40;100997.22;4984715;28;20034;-64
2021/09/21 07:39:19;;;;;;;9.82;3.20;;;;;;;13.66;87.46;100991.81;4986289;28;20487;-64
2021/09/21 07:41:45;;;;;;;12.40;3.55;;;;;;;13.71;87.60;100990.06;4979807;28;20479;-64
2021/09/21 07:44:10;;;;;;;12.73;3.30;;;;;;;13.86;86.20;100992.31;4993872;28;20075;-64
2021/09/21 07:46:36;;;;;;;14.98;2.85;;;;;;;14.00;83.88;101000.22;4991338;28;20034;-64
2021/09/21 07:49:02;;;;;;;8.93;2.20;;;;;;;14.05;84.58;101005.75;4992890;28;20049;-65
2021/09/21 07:51:30;;;;;;;7.60;2.58;;;;;;;14.12;84.20;101006.47;4989419;28;20027;-64
2021/09/21 07:53:56;;;;;;;10.07;2.92;;;;;;;14.25;82.56;101007.31;4984115;28;20026;-64
2021/09/21 07:56:22;;;;;;;13.55;2.45;;;;;;;14.31;82.54;101007.19;4991223;28;20525;-64
2021/09/21 07:58:48;;;;;;;10.55;3.10;;;;;;;14.46;82.10;101009.41;4986863;28;20472;-64
2021/09/21 08:01:13;;;;;;;12.82;2.78;;;;;;;14.41;82.45;101011.19;4987232;28;20054;-64
2021/09/21 08:03:39;;;;;;;9.13;2.67;;;;;;;14.47;83.17;101008.38;4988654;28;20033;-64
2021/09/21 08:06:05;;;;;;;12.38;2.13;;;;;;;14.56;82.21;101014.22;4991587;28;20516;-64
2021/09/21 08:08:30;;;;;;;13.88;2.22;;;;;;;14.68;81.38;101016.94;4973244;28;20061;-64
2021/09/21 08:10:57;;;;;;;11.23;2.40;;;;;;;14.65;80.67;101017.41;4977655;28;20061;-64
2021/09/21 08:13:23;;;;;;;12.32;2.38;;;;;;;14.82;79.96;101014.00;4993051;28;20038;-65
2021/09/21 08:15:49;;;;;;;11.90;2.47;;;;;;;14.81;79.47;101013.16;4989328;28;20113;-64
2021/09/21 08:18:15;;;;;;;13.43;3.17;;;;;;;14.73;79.82;101016.22;4992974;28;20129;-64
2021/09/21 08:20:41;;;;;;;11.25;2.80;;;;;;;14.75;79.47;101009.53;4992031;28;20540;-64
2021/09/21 08:23:06;;;;;;;15.73;2.90;;;;;;;14.81;78.85;101021.28;4989831;28;20122;-64
2021/09/21 08:25:32;;;;;;;13.35;3.15;;;;;;;14.78;78.94;101021.75;4990914;28;20376;-64
2021/09/21 08:27:58;;;;;;;12.85;2.90;;;;;;;14.84;79.14;101022.72;4988529;28;20030;-64
2021/09/21 08:30:23;;;;;;;179.77;35.15;;;;;;;14.83;78.73;101023.78;4993166;28;20381;-64
2021/09/21 08:32:49;;;;;;;22.92;3.28;;;;;;;14.83;79.21;101030.00;4988947;28;20093;-64
2021/09/21 08:35:14;;;;;;;12.88;2.65;;;;;;;14.98;78.35;101029.50;4962085;28;20030;-64
2021/09/21 08:37:40;;;;;;;17.90;3.20;;;;;;;15.10;77.49;101031.34;4991359;28;20124;-64
2021/09/21 08:40:06;;;;;;;14.73;2.80;;;;;;;15.25;76.93;101033.56;4989091;28;20042;-64
2021/09/21 08:42:32;;;;;;;12.40;2.97;;;;;;;15.19;77.36;101029.91;4991583;28;20054;-64
2021/09/21 08:44:57;;;;;;;15.50;3.03;;;;;;;15.35;76.94;101028.31;4988052;28;20558;-64
2021/09/21 08:47:23;;;;;;;11.13;2.88;;;;;;;15.38;75.88;101033.25;4986659;28;20080;-64
2021/09/21 08:49:49;;;;;;;12.10;2.60;;;;;;;15.31;77.17;101032.59;4986276;28;20038;-65
2021/09/21 08:52:14;;;;;;;15.15;3.03;;;;;;;15.39;76.35;101037.63;4986180;28;20035;-64
2021/09/21 08:54:40;;;;;;;14.50;2.97;;;;;;;15.48;75.59;101028.03;4990506;28;20030;-64
2021/09/21 08:57:07;;;;;;;12.10;2.55;;;;;;;15.56;75.19;101034.94;4982886;28;20097;-64
2021/09/21 08:59:37;;;;;;;20.23;3.00;;;;;;;15.48;74.97;101038.03;4989943;28;20030;-64
2021/09/21 09:02:08;;;;;;;13.18;3.60;;;;;;;15.52;75.59;101033.78;4984855;28;20448;-64
2021/09/21 09:04:35;;;;;;;10.65;2.53;;;;;;;15.72;74.65;101041.47;4985970;28;20476;-64
2021/09/21 09:07:00;;;;;;;13.23;3.25;;;;;;;15.66;73.61;101037.03;4963805;28;20041;-65
2021/09/21 09:09:30;;;;;;;13.18;2.72;;;;;;;15.62;72.96;101033.97;4983335;28;20034;-65
2021/09/21 09:12:03;;;;;;;16.77;3.10;;;;;;;15.70;72.88;101042.78;4989186;28;20495;-65
2021/09/21 09:14:31;;;;;;;;;;;;;;;15.83;72.07;101037.03;4991608;28;20031;-65
2021/09/21 09:17:02;;;;;;;12.82;2.97;;;;;;;16.00;71.36;101045.22;4990497;28;19922;-65
2021/09/21 09:19:37;;;;;;;13.20;2.72;;;;;;;16.29;70.26;101047.84;4978595;28;20117;-65
2021/09/21 09:22:03;;;;;;;11.63;2.80;;;;;;;16.44;70.27;101038.25;4982603;28;20035;-64
2021/09/21 09:24:29;;;;;;;12.82;2.78;;;;;;;16.32;70.12;101044.63;4984402;28;20034;-64
2021/09/21 09:27:13;;;;;;;;;;;;;;;16.30;68.96;101041.31;4985682;28;20216;-64
2021/09/21 09:29:59;;;;;;;9.35;2.60;;;;;;;16.46;68.67;101038.81;4980746;28;19924;-65
2021/09/21 09:32:45;;;;;;;10.63;2.75;;;;;;;16.45;67.08;101040.75;4978065;28;20097;-64
2021/09/21 09:35:21;;;;;;;11.82;2.85;;;;;;;16.23;68.73;101046.13;4989942;28;20045;-64
2021/09/21 09:37:47;;;;;;;10.52;2.88;;;;;;;16.41;68.10;101042.31;4990056;28;20132;-64
2021/09/21 09:40:12;;;;;;;11.32;2.55;;;;;;;16.45;69.08;101043.47;4991097;28;20038;-64
2021/09/21 09:42:42;;;;;;;11.80;2.80;;;;;;;16.66;67.55;101041.81;4989829;28;20042;-65
2021/09/21 09:45:09;;;;;;;13.40;3.15;;;;;;;16.65;65.75;101042.91;4979616;28;20506;-65
2021/09/21 09:47:46;;;;;;;9.20;2.47;;;;;;;16.88;65.29;101041.03;4990249;28;20041;-65
2021/09/21 09:50:12;;;;;;;10.38;2.92;;;;;;;16.94;64.94;101044.63;4973183;28;20101;-65
2021/09/21 09:52:38;;;;;;;7.75;2.50;;;;;;;17.01;64.44;101041.78;4984405;28;20114;-64
2021/09/21 09:55:04;;;;;;;10.77;2.58;;;;;;;17.05;62.56;101037.47;4988971;28;20034;-64
2021/09/21 09:57:30;;;;;;;9.55;2.80;;;;;;;17.09;62.46;101042.13;4981192;28;20031;-64
2021/09/21 09:59:56;;;;;;;9.82;2.80;;;;;;;17.01;63.33;101034.41;4986554;28;20098;-64
2021/09/21 10:02:22;;;;;;;12.77;3.10;;;;;;;17.11;64.68;101037.25;4989871;28;20042;-65
2021/09/21 10:04:49;;;;;;;9.43;2.60;;;;;;;17.38;63.29;101043.81;4981802;28;20046;-64
2021/09/21 10:07:18;;;;;;;15.68;2.55;;;;;;;17.58;62.81;101043.19;4989342;28;20057;-65
2021/09/21 10:09:43;;;;;;;14.88;2.70;;;;;;;17.46;60.89;101039.78;4963827;28;20037;-65
2021/09/21 10:12:11;;;;;;;10.68;2.75;;;;;;;17.49;60.88;101042.00;4988872;28;20380;-65
2021/09/21 10:14:40;;;;;;;9.35;2.40;;;;;;;17.60;61.02;101042.94;4991207;28;20104;-65
2021/09/21 10:17:09;;;;;;;11.02;2.67;;;;;;;17.38;60.53;101032.91;4990444;28;20034;-65
2021/09/21 10:19:40;;;;;;;10.60;2.67;;;;;;;17.36;59.91;101035.88;4980877;28;20034;-65
2021/09/21 10:22:09;;;;;;;11.82;2.50;;;;;;;17.33;59.71;101035.59;4989961;28;20117;-64
2021/09/21 10:24:38;;;;;;;13.85;2.63;;;;;;;17.38;59.23;101036.44;4988795;28;20503;-65
2021/09/21 10:27:10;;;;;;;13.57;2.65;;;;;;;17.55;59.50;101035.53;4990386;28;20062;-65
2021/09/21 10:29:36;;;;;;;9.40;2.53;;;;;;;17.72;61.53;101038.16;4986814;28;20038;-65
2021/09/21 10:32:10;;;;;;;16.15;3.15;;;;;;;17.77;61.15;101038.19;4989851;28;20030;-65
2021/09/21 10:34:54;;;;;;;17.42;3.15;;;;;;;17.61;60.82;101036.41;4988200;28;20038;-65
2021/09/21 10:37:23;;;;;;;10.85;2.58;;;;;;;17.95;58.23;101038.88;4982156;28;20105;-65
2021/09/21 10:39:59;;;;;;;10.45;2.50;;;;;;;17.79;60.82;101038.75;4988116;28;20165;-65
2021/09/21 10:42:24;;;;;;;10.35;2.88;;;;;;;17.71;62.44;101033.78;4980731;28;20031;-64
2021/09/21 10:44:53;;;;;;;16.88;3.28;;;;;;;17.81;62.61;101033.88;4988778;28;20399;-65
2021/09/21 10:47:24;;;;;;;8.90;2.38;;;;;;;18.08;58.95;101048.56;4983543;28;20099;-65
2021/09/21 10:49:50;;;;;;;14.32;2.92;;;;;;;18.01;59.63;101037.88;4984675;28;20045;-65
2021/09/21 10:52:17;;;;;;;11.35;2.90;;;;;;;18.25;59.43;101040.22;4972575;28;20034;-65
2021/09/21 10:55:04;;;;;;;14.43;2.40;;;;;;;18.24;60.52;101041.28;4988949;28;20749;-65
2021/09/21 10:57:31;;;;;;;10.38;2.90;;;;;;;18.12;61.44;101045.03;4989067;28;20128;-65
2021/09/21 11:00:00;;;;;;;14.27;3.30;;;;;;;18.15;61.14;101038.25;4989517;28;20030;-65
2021/09/21 11:02:36;;;;;;;13.07;2.67;;;;;;;18.44;60.72;101035.97;4988290;28;20055;-65
2021/09/21 11:05:03;;;;;;;11.77;2.50;;;;;;;18.66;59.08;101035.03;4972824;28;20038;-65
2021/09/21 11:07:29;;;;;;;13.48;3.10;;;;;;;18.56;59.34;101043.97;4988079;28;20093;-65
2021/09/21 11:09:55;;;;;;;9.27;2.50;;;;;;;18.53;58.90;101047.22;4981049;28;20046;-64
2021/09/21 11:12:23;;;;;;;10.75;2.63;;;;;;;18.31;60.07;101050.06;4985357;28;20039;-65
2021/09/21 11:14:52;;;;;;;14.45;2.80;;;;;;;18.41;60.28;101049.31;4991809;28;20105;-65
2021/09/21 11:17:24;;;;;;;10.73;2.97;;;;;;;18.54;59.23;101035.22;4992440;28;20038;-65
2021/09/21 11:19:52;;;;;;;18.73;2.70;;;;;;;18.65;57.61;101043.47;4983057;28;20062;-65
2021/09/21 11:22:22;;;;;;;15.02;2.80;;;;;;;18.50;58.49;101038.72;4991823;28;20057;-65
2021/09/21 11:24:48;;;;;;;10.18;2.70;;;;;;;18.70;57.48;101043.47;4991561;28;20121;-65
2021/09/21 11:27:13;;;;;;;13.18;3.00;;;;;;;18.85;56.96;101040.81;4992781;28;20109;-65